Afton, Texas
Current Conditions -  °F | °C
As of 7:53 AM on Thursday 29 Jan 2015 (Local Time) from KLBB Reporting Station
Broken Clouds Broken Clouds  
Wind Chill: 34°   Ceiling: 19000
Heat Index: 42°   Visibility: 10mi
Dew Point: 33°   Wind: 16mph
Humidity: 70%   Direction: 20°NNE
Pressure: 30.34"   Gusts: NA
Location:  33.76°N, 100.82°W
Report Text: KLBB 291353Z 02014KT 10SM BKN190 BKN260 06/01 A3034 RMK AO2 SLP258 T00560006
Loading
Personal Weather Stations






























Interactive Weather Map New forecast layout! Learn more

10-Day Weather Forecast

Advertisements
Track Severe Weather on mobile